WetterOnline ( https://www.wetteronline.de )

Wetter aktuell Stromboli

Aktuelles Wetter: Messina (51m)

6-stündlich | Neueste Meldungen
Ortszeit Temperatur Wetter
Di, 27.10. 19:00 16.8° C wolkig
Di, 27.10. 13:00 17.0° C Gewitter
Di, 27.10. 7:00 15.6° C leicht bewölkt
Di, 27.10. 1:00 16.6° C wolkenlos
Mo, 26.10. 19:00 18.2° C wolkenlos
Mo, 26.10. 13:00 21.8° C fast wolkenlos
Mo, 26.10. 7:00 16.4° C fast wolkenlos
Mo, 26.10. 1:00 17.2° C wolkenlos
Ortszeit Temperatur Wetter
Di, 27.10. 22:00 15.8° C leichter Regen
Di, 27.10. 21:55 16° C leichter Regen
Di, 27.10. 21:00 16.2° C bewölkt
Di, 27.10. 20:55 16° C bewölkt
Di, 27.10. 20:00 16.6° C wolkig
Di, 27.10. 19:55 17° C leicht bewölkt
Di, 27.10. 19:00 16.8° C wolkig
Di, 27.10. 18:55 17° C leicht bewölkt
Di, 27.10. 18:00 16.0° C wolkig
Ortszeit Relative Feuchte Sichtweite
Di, 27.10. 19:00 76% 10 km
Di, 27.10. 13:00 100% 7 km
Di, 27.10. 7:00 86% 20 km
Di, 27.10. 1:00 87% 12 km
Mo, 26.10. 19:00 74% 20 km
Mo, 26.10. 13:00 59% 25 km
Mo, 26.10. 7:00 86% 20 km
Mo, 26.10. 1:00 86% 16 km
Ortszeit Relative Feuchte Sichtweite
Di, 27.10. 22:00 83% 4 km
Di, 27.10. 21:55 82% 9 km
Di, 27.10. 21:00 75% 10 km
Di, 27.10. 20:55 77% >10 km
Di, 27.10. 20:00 74% 10 km
Di, 27.10. 19:55 72% >10 km
Di, 27.10. 19:00 76% 10 km
Di, 27.10. 18:55 77% >10 km
Di, 27.10. 18:00 80% 10 km
Ortszeit Niederschlagsmenge Niederschlagsart
Di, 27.10. 19:00 8 l/m2 in 12 Std. Gewitter
Di, 27.10. 13:00 7 l/m2 in 6 Std. Gewitter
Di, 27.10. 7:00 0.0 l/m2 in 12 Std. -
Di, 27.10. 1:00 0.0 l/m2 in 6 Std. -
Mo, 26.10. 19:00 0.0 l/m2 in 12 Std. -
Mo, 26.10. 13:00 0.0 l/m2 in 6 Std. -
Mo, 26.10. 7:00 0.0 l/m2 in 12 Std. -
Mo, 26.10. 1:00 0.0 l/m2 in 6 Std. -
Ortszeit Niederschlagsmenge Niederschlagsart
Di, 27.10. 22:00 keine Meldung -
Di, 27.10. 21:55 keine Meldung -
Di, 27.10. 21:00 keine Meldung -
Di, 27.10. 20:55 keine Meldung -
Di, 27.10. 20:00 keine Meldung -
Di, 27.10. 19:55 keine Meldung -
Di, 27.10. 19:00 keine Meldung -
Di, 27.10. 18:55 keine Meldung -
Di, 27.10. 18:00 keine Meldung -
Ortszeit Stärke Spitze Richtung
km/h Bft. km/h Grad Sektor
Di, 27.10. 19:00 7 2 - 10° N
Di, 27.10. 13:00 4 1 - 220° SW
Di, 27.10. 7:00 6 1 - 240° SW
Di, 27.10. 1:00 0 0 - - -
Mo, 26.10. 19:00 2 1 - 240° SW
Mo, 26.10. 13:00 7 2 - 120° SO
Mo, 26.10. 7:00 6 1 - 330° NW
Mo, 26.10. 1:00 6 1 - 340° N
Ortszeit Stärke Spitze Richtung
km/h Bft. km/h Grad Sektor
Di, 27.10. 22:00 11 2 - 360° N
Di, 27.10. 21:55 11 2 - 360° N
Di, 27.10. 21:00 11 2 - 30° NO
Di, 27.10. 20:55 11 2 - 30° NO
Di, 27.10. 20:00 11 2 - 300° NW
Di, 27.10. 19:55 11 2 - 300° NW
Di, 27.10. 19:00 7 2 - 10° N
Di, 27.10. 18:55 7 2 - 10° N
Di, 27.10. 18:00 6 1 - 20° N
Ortszeit Untergrenze Bedeckung Gattung
total tief tief mittel hoch
Di, 27.10. 19:00 540 m 6/8 5/8 Cu As Ci
Di, 27.10. 13:00 600 m 8/8 4/8 Cb As Cs
Di, 27.10. 7:00 900 m 5/8 1/8 Sc - Ci
Di, 27.10. 1:00 - 0/8 0/8 - - -
Mo, 26.10. 19:00 - 0/8 0/8 - - -
Mo, 26.10. 13:00 900 m 1/8 1/8 Cu - -
Mo, 26.10. 7:00 900 m 1/8 1/8 Sc - -
Mo, 26.10. 1:00 - 0/8 0/8 - - -
Ortszeit Bedeckungsgrad in Achtel und Wolkenuntergrenze
Di, 27.10. 22:00 5(600m) 7(2400m)
Di, 27.10. 21:55 5-7(600m)
Di, 27.10. 21:00 5(600m) 7(2400m)
Di, 27.10. 20:55 5-7(600m)
Di, 27.10. 20:00 4(600m) 3(2400m)
Di, 27.10. 19:55 3-4(600m)
Di, 27.10. 19:00 2(540m) 3(600m) 5(6000m)
Di, 27.10. 18:55 1-2(540m) 3-4(600m)
Di, 27.10. 18:00 3(540m) 4(600m)
Ortszeit Luftdruck NN (hPa) Tendenz (hPa in 3 Std.)
Di, 27.10. 19:00 1012 + 0,4
Di, 27.10. 13:00 1013 - 0,4
Di, 27.10. 7:00 1012 - 0,4
Di, 27.10. 1:00 1014 - 0,6
Mo, 26.10. 19:00 1014 0,0
Mo, 26.10. 13:00 1016 - 0,8
Mo, 26.10. 7:00 1018 - 0,4
Mo, 26.10. 1:00 1019 + 0,2
Ortszeit Luftdruck NN (hPa) Tendenz (hPa in 3 Std.)
Di, 27.10. 22:00 1013 + 1,6
Di, 27.10. 21:55 1013 keine Meldung
Di, 27.10. 21:00 1013 + 1,3
Di, 27.10. 20:55 1013 keine Meldung
Di, 27.10. 20:00 1012 + 0,3
Di, 27.10. 19:55 1011 keine Meldung
Di, 27.10. 19:00 1012 + 0,4
Di, 27.10. 18:55 1011 keine Meldung
Di, 27.10. 18:00 1012 + 0,3
Ortszeit Schneehöhe (cm)
Di, 27.10. 19:00 -
Di, 27.10. 13:00 -
Di, 27.10. 7:00 0
Di, 27.10. 1:00 -
Mo, 26.10. 19:00 -
Mo, 26.10. 13:00 -
Mo, 26.10. 7:00 0
Mo, 26.10. 1:00 -
Ortszeit Schneehöhe (cm)
Di, 27.10. 22:00 -
Di, 27.10. 21:55 -
Di, 27.10. 21:00 -
Di, 27.10. 20:55 -
Di, 27.10. 20:00 -
Di, 27.10. 19:55 -
Di, 27.10. 19:00 -
Di, 27.10. 18:55 -
Di, 27.10. 18:00 -
Link zu dieser Seite / Seite empfehlen

Das Wetter in ...